sensor_id;sensor_type;location;lat;lon;timestamp;P1;durP1;ratioP1;P2;durP2;ratioP2
25231;SDS011;13176;51.140;6.290;2023-05-07T00:01:12;699.80;;;652.13;;
25231;SDS011;13176;51.140;6.290;2023-05-07T00:03:38;722.17;;;671.40;;
25231;SDS011;13176;51.140;6.290;2023-05-07T00:06:05;693.55;;;644.85;;
25231;SDS011;13176;51.140;6.290;2023-05-07T00:08:32;718.55;;;667.55;;
25231;SDS011;13176;51.140;6.290;2023-05-07T00:10:59;727.97;;;677.63;;
25231;SDS011;13176;51.140;6.290;2023-05-07T00:13:25;704.80;;;656.35;;
25231;SDS011;13176;51.140;6.290;2023-05-07T00:15:52;702.97;;;654.33;;
25231;SDS011;13176;51.140;6.290;2023-05-07T00:18:18;709.03;;;660.80;;
25231;SDS011;13176;51.140;6.290;2023-05-07T00:20:47;700.03;;;650.95;;
25231;SDS011;13176;51.140;6.290;2023-05-07T00:23:13;736.85;;;683.92;;
25231;SDS011;13176;51.140;6.290;2023-05-07T00:25:39;722.00;;;672.03;;
25231;SDS011;13176;51.140;6.290;2023-05-07T00:28:06;736.45;;;684.90;;
25231;SDS011;13176;51.140;6.290;2023-05-07T00:30:32;725.15;;;673.45;;
25231;SDS011;13176;51.140;6.290;2023-05-07T00:32:59;747.45;;;694.60;;
25231;SDS011;13176;51.140;6.290;2023-05-07T00:35:25;744.83;;;692.08;;
25231;SDS011;13176;51.140;6.290;2023-05-07T00:37:52;749.08;;;695.13;;
25231;SDS011;13176;51.140;6.290;2023-05-07T00:40:18;739.58;;;686.75;;
25231;SDS011;13176;51.140;6.290;2023-05-07T00:42:44;740.60;;;687.55;;
25231;SDS011;13176;51.140;6.290;2023-05-07T00:45:13;745.63;;;691.58;;
25231;SDS011;13176;51.140;6.290;2023-05-07T00:47:40;660.35;;;615.72;;
25231;SDS011;13176;51.140;6.290;2023-05-07T00:50:07;652.45;;;608.42;;
25231;SDS011;13176;51.140;6.290;2023-05-07T00:52:36;670.17;;;624.50;;
25231;SDS011;13176;51.140;6.290;2023-05-07T00:55:04;685.55;;;639.03;;
25231;SDS011;13176;51.140;6.290;2023-05-07T00:57:33;698.40;;;649.90;;
25231;SDS011;13176;51.140;6.290;2023-05-07T01:00:03;665.80;;;621.95;;
25231;SDS011;13176;51.140;6.290;2023-05-07T01:02:31;624.88;;;583.08;;
25231;SDS011;13176;51.140;6.290;2023-05-07T01:04:57;700.17;;;650.95;;
25231;SDS011;13176;51.140;6.290;2023-05-07T01:07:24;729.88;;;677.83;;
25231;SDS011;13176;51.140;6.290;2023-05-07T01:09:51;713.45;;;661.83;;
25231;SDS011;13176;51.140;6.290;2023-05-07T01:12:17;701.95;;;651.97;;
25231;SDS011;13176;51.140;6.290;2023-05-07T01:14:44;710.70;;;660.53;;
25231;SDS011;13176;51.140;6.290;2023-05-07T01:17:11;752.08;;;697.63;;
25231;SDS011;13176;51.140;6.290;2023-05-07T01:19:37;732.25;;;680.70;;
25231;SDS011;13176;51.140;6.290;2023-05-07T01:22:07;739.35;;;686.95;;
25231;SDS011;13176;51.140;6.290;2023-05-07T01:24:35;727.70;;;677.13;;
25231;SDS011;13176;51.140;6.290;2023-05-07T01:27:03;729.38;;;678.13;;
25231;SDS011;13176;51.140;6.290;2023-05-07T01:29:30;733.22;;;681.15;;
25231;SDS011;13176;51.140;6.290;2023-05-07T01:31:57;745.83;;;692.63;;
25231;SDS011;13176;51.140;6.290;2023-05-07T01:34:26;748.75;;;693.90;;
25231;SDS011;13176;51.140;6.290;2023-05-07T01:36:56;666.28;;;621.13;;
25231;SDS011;13176;51.140;6.290;2023-05-07T01:39:24;726.15;;;675.13;;
25231;SDS011;13176;51.140;6.290;2023-05-07T01:41:52;721.42;;;670.30;;
25231;SDS011;13176;51.140;6.290;2023-05-07T01:44:22;729.92;;;678.25;;
25231;SDS011;13176;51.140;6.290;2023-05-07T01:46:50;729.50;;;678.55;;
25231;SDS011;13176;51.140;6.290;2023-05-07T01:49:17;751.45;;;698.03;;
25231;SDS011;13176;51.140;6.290;2023-05-07T01:51:44;736.58;;;682.95;;
25231;SDS011;13176;51.140;6.290;2023-05-07T01:54:10;747.08;;;693.45;;
25231;SDS011;13176;51.140;6.290;2023-05-07T01:56:37;737.63;;;684.40;;
25231;SDS011;13176;51.140;6.290;2023-05-07T01:59:04;733.67;;;681.60;;
25231;SDS011;13176;51.140;6.290;2023-05-07T02:01:31;705.58;;;657.40;;
25231;SDS011;13176;51.140;6.290;2023-05-07T02:03:57;684.45;;;637.42;;
25231;SDS011;13176;51.140;6.290;2023-05-07T02:06:24;685.17;;;637.65;;
25231;SDS011;13176;51.140;6.290;2023-05-07T02:08:51;676.95;;;630.75;;
25231;SDS011;13176;51.140;6.290;2023-05-07T02:11:17;634.10;;;591.67;;
25231;SDS011;13176;51.140;6.290;2023-05-07T02:13:43;624.78;;;583.80;;
25231;SDS011;13176;51.140;6.290;2023-05-07T02:16:10;630.90;;;588.95;;
25231;SDS011;13176;51.140;6.290;2023-05-07T02:18:37;603.92;;;564.72;;
25231;SDS011;13176;51.140;6.290;2023-05-07T02:21:03;609.50;;;569.72;;
25231;SDS011;13176;51.140;6.290;2023-05-07T02:23:30;615.55;;;574.92;;
25231;SDS011;13176;51.140;6.290;2023-05-07T02:25:56;635.22;;;592.65;;
25231;SDS011;13176;51.140;6.290;2023-05-07T02:28:22;640.45;;;598.33;;
25231;SDS011;13176;51.140;6.290;2023-05-07T02:30:49;621.13;;;578.95;;
25231;SDS011;13176;51.140;6.290;2023-05-07T02:33:16;639.13;;;596.20;;
25231;SDS011;13176;51.140;6.290;2023-05-07T02:35:43;610.42;;;569.92;;
25231;SDS011;13176;51.140;6.290;2023-05-07T02:38:09;622.80;;;580.13;;
25231;SDS011;13176;51.140;6.290;2023-05-07T02:40:36;633.58;;;590.33;;
25231;SDS011;13176;51.140;6.290;2023-05-07T02:43:06;620.95;;;579.17;;
25231;SDS011;13176;51.140;6.290;2023-05-07T02:45:32;644.50;;;600.55;;
25231;SDS011;13176;51.140;6.290;2023-05-07T02:47:59;577.00;;;539.28;;
25231;SDS011;13176;51.140;6.290;2023-05-07T02:50:26;547.50;;;512.33;;
25231;SDS011;13176;51.140;6.290;2023-05-07T02:52:53;589.72;;;550.80;;
25231;SDS011;13176;51.140;6.290;2023-05-07T02:55:19;620.15;;;578.33;;
25231;SDS011;13176;51.140;6.290;2023-05-07T02:57:46;665.13;;;619.38;;
25231;SDS011;13176;51.140;6.290;2023-05-07T03:00:16;659.83;;;614.17;;
25231;SDS011;13176;51.140;6.290;2023-05-07T03:02:44;661.95;;;616.95;;
25231;SDS011;13176;51.140;6.290;2023-05-07T03:05:11;654.78;;;609.38;;
25231;SDS011;13176;51.140;6.290;2023-05-07T03:07:38;670.72;;;625.13;;
25231;SDS011;13176;51.140;6.290;2023-05-07T03:10:05;663.17;;;618.42;;
25231;SDS011;13176;51.140;6.290;2023-05-07T03:12:32;681.20;;;634.60;;
25231;SDS011;13176;51.140;6.290;2023-05-07T03:14:58;676.42;;;629.50;;
25231;SDS011;13176;51.140;6.290;2023-05-07T03:17:25;675.20;;;629.40;;
25231;SDS011;13176;51.140;6.290;2023-05-07T03:19:51;656.15;;;611.15;;
25231;SDS011;13176;51.140;6.290;2023-05-07T03:22:18;663.95;;;618.22;;
25231;SDS011;13176;51.140;6.290;2023-05-07T03:24:44;671.95;;;625.38;;
25231;SDS011;13176;51.140;6.290;2023-05-07T03:27:11;667.60;;;622.63;;
25231;SDS011;13176;51.140;6.290;2023-05-07T03:29:37;634.80;;;592.47;;
25231;SDS011;13176;51.140;6.290;2023-05-07T03:32:04;672.22;;;626.58;;
25231;SDS011;13176;51.140;6.290;2023-05-07T03:34:30;644.50;;;602.20;;
25231;SDS011;13176;51.140;6.290;2023-05-07T03:36:57;665.33;;;619.95;;
25231;SDS011;13176;51.140;6.290;2023-05-07T03:39:23;632.40;;;589.45;;
25231;SDS011;13176;51.140;6.290;2023-05-07T03:41:49;666.63;;;620.95;;
25231;SDS011;13176;51.140;6.290;2023-05-07T03:44:16;654.97;;;610.25;;
25231;SDS011;13176;51.140;6.290;2023-05-07T03:46:42;654.45;;;609.78;;
25231;SDS011;13176;51.140;6.290;2023-05-07T03:49:09;641.75;;;598.83;;
25231;SDS011;13176;51.140;6.290;2023-05-07T03:51:36;628.15;;;587.08;;
25231;SDS011;13176;51.140;6.290;2023-05-07T03:54:03;643.72;;;600.28;;
25231;SDS011;13176;51.140;6.290;2023-05-07T03:56:29;661.65;;;616.50;;
25231;SDS011;13176;51.140;6.290;2023-05-07T03:58:57;638.53;;;596.28;;
25231;SDS011;13176;51.140;6.290;2023-05-07T04:01:23;621.95;;;580.75;;
25231;SDS011;13176;51.140;6.290;2023-05-07T04:03:50;631.97;;;589.67;;
25231;SDS011;13176;51.140;6.290;2023-05-07T04:06:16;629.10;;;586.47;;
25231;SDS011;13176;51.140;6.290;2023-05-07T04:08:43;628.03;;;585.90;;
25231;SDS011;13176;51.140;6.290;2023-05-07T04:11:10;646.40;;;602.40;;
25231;SDS011;13176;51.140;6.290;2023-05-07T04:13:36;646.70;;;602.85;;
25231;SDS011;13176;51.140;6.290;2023-05-07T04:16:05;624.55;;;582.60;;
25231;SDS011;13176;51.140;6.290;2023-05-07T04:18:32;645.72;;;601.80;;
25231;SDS011;13176;51.140;6.290;2023-05-07T04:20:58;634.88;;;591.92;;
25231;SDS011;13176;51.140;6.290;2023-05-07T04:23:25;642.15;;;598.08;;
25231;SDS011;13176;51.140;6.290;2023-05-07T04:25:51;608.70;;;568.70;;
25231;SDS011;13176;51.140;6.290;2023-05-07T04:28:18;626.30;;;584.17;;
25231;SDS011;13176;51.140;6.290;2023-05-07T04:30:44;684.22;;;636.53;;
25231;SDS011;13176;51.140;6.290;2023-05-07T04:33:10;716.13;;;665.60;;
25231;SDS011;13176;51.140;6.290;2023-05-07T04:35:37;694.72;;;646.28;;
25231;SDS011;13176;51.140;6.290;2023-05-07T04:38:04;660.38;;;615.47;;
25231;SDS011;13176;51.140;6.290;2023-05-07T04:40:30;674.25;;;627.78;;
25231;SDS011;13176;51.140;6.290;2023-05-07T04:42:57;736.45;;;683.42;;
25231;SDS011;13176;51.140;6.290;2023-05-07T04:45:23;689.08;;;639.92;;
25231;SDS011;13176;51.140;6.290;2023-05-07T04:47:49;639.13;;;596.72;;
25231;SDS011;13176;51.140;6.290;2023-05-07T04:50:16;628.28;;;586.25;;
25231;SDS011;13176;51.140;6.290;2023-05-07T04:52:43;624.55;;;582.55;;
25231;SDS011;13176;51.140;6.290;2023-05-07T04:55:10;687.17;;;640.22;;
25231;SDS011;13176;51.140;6.290;2023-05-07T04:57:36;659.90;;;615.47;;
25231;SDS011;13176;51.140;6.290;2023-05-07T05:00:05;692.20;;;644.35;;
25231;SDS011;13176;51.140;6.290;2023-05-07T05:02:34;710.88;;;660.13;;
25231;SDS011;13176;51.140;6.290;2023-05-07T05:05:01;752.55;;;699.08;;
25231;SDS011;13176;51.140;6.290;2023-05-07T05:07:28;715.95;;;665.95;;
25231;SDS011;13176;51.140;6.290;2023-05-07T05:09:54;686.10;;;638.85;;
25231;SDS011;13176;51.140;6.290;2023-05-07T05:12:21;684.92;;;638.05;;
25231;SDS011;13176;51.140;6.290;2023-05-07T05:14:48;694.03;;;645.38;;
25231;SDS011;13176;51.140;6.290;2023-05-07T05:17:14;703.53;;;655.00;;
25231;SDS011;13176;51.140;6.290;2023-05-07T05:19:41;712.33;;;662.33;;
25231;SDS011;13176;51.140;6.290;2023-05-07T05:22:07;714.75;;;664.03;;
25231;SDS011;13176;51.140;6.290;2023-05-07T05:24:33;714.60;;;665.47;;
25231;SDS011;13176;51.140;6.290;2023-05-07T05:27:00;673.25;;;627.63;;
25231;SDS011;13176;51.140;6.290;2023-05-07T05:29:27;483.35;;;454.60;;
25231;SDS011;13176;51.140;6.290;2023-05-07T05:31:53;428.15;;;403.20;;
25231;SDS011;13176;51.140;6.290;2023-05-07T05:34:20;449.52;;;422.48;;
25231;SDS011;13176;51.140;6.290;2023-05-07T05:36:47;485.35;;;455.73;;
25231;SDS011;13176;51.140;6.290;2023-05-07T05:39:14;509.27;;;477.90;;
25231;SDS011;13176;51.140;6.290;2023-05-07T05:41:40;511.65;;;479.67;;
25231;SDS011;13176;51.140;6.290;2023-05-07T05:44:07;571.33;;;534.70;;
25231;SDS011;13176;51.140;6.290;2023-05-07T05:46:33;550.42;;;515.72;;
25231;SDS011;13176;51.140;6.290;2023-05-07T05:49:02;489.13;;;459.33;;
25231;SDS011;13176;51.140;6.290;2023-05-07T05:51:28;420.40;;;395.83;;
25231;SDS011;13176;51.140;6.290;2023-05-07T05:53:55;413.30;;;388.63;;
25231;SDS011;13176;51.140;6.290;2023-05-07T05:56:21;446.30;;;419.17;;
25231;SDS011;13176;51.140;6.290;2023-05-07T05:58:48;468.90;;;440.10;;
25231;SDS011;13176;51.140;6.290;2023-05-07T06:01:14;471.77;;;442.33;;
25231;SDS011;13176;51.140;6.290;2023-05-07T06:03:41;442.00;;;415.80;;
25231;SDS011;13176;51.140;6.290;2023-05-07T06:06:07;494.98;;;463.17;;
25231;SDS011;13176;51.140;6.290;2023-05-07T06:08:33;429.90;;;404.38;;
25231;SDS011;13176;51.140;6.290;2023-05-07T06:11:00;487.95;;;457.65;;
25231;SDS011;13176;51.140;6.290;2023-05-07T06:13:28;421.30;;;396.55;;
25231;SDS011;13176;51.140;6.290;2023-05-07T06:15:55;464.50;;;435.27;;
25231;SDS011;13176;51.140;6.290;2023-05-07T06:18:21;548.05;;;512.40;;
25231;SDS011;13176;51.140;6.290;2023-05-07T06:20:48;497.08;;;466.30;;
25231;SDS011;13176;51.140;6.290;2023-05-07T06:23:14;527.08;;;493.65;;
25231;SDS011;13176;51.140;6.290;2023-05-07T06:25:47;507.73;;;476.45;;
25231;SDS011;13176;51.140;6.290;2023-05-07T06:28:15;440.23;;;414.35;;
25231;SDS011;13176;51.140;6.290;2023-05-07T06:30:42;499.33;;;468.63;;
25231;SDS011;13176;51.140;6.290;2023-05-07T06:33:08;386.13;;;364.05;;
25231;SDS011;13176;51.140;6.290;2023-05-07T06:35:35;345.15;;;325.08;;
25231;SDS011;13176;51.140;6.290;2023-05-07T06:38:02;428.48;;;402.98;;
25231;SDS011;13176;51.140;6.290;2023-05-07T06:40:28;419.73;;;394.75;;
25231;SDS011;13176;51.140;6.290;2023-05-07T06:42:54;414.65;;;390.38;;
25231;SDS011;13176;51.140;6.290;2023-05-07T06:45:21;434.85;;;409.10;;
25231;SDS011;13176;51.140;6.290;2023-05-07T06:47:47;451.15;;;424.33;;
25231;SDS011;13176;51.140;6.290;2023-05-07T06:50:14;417.27;;;392.85;;
25231;SDS011;13176;51.140;6.290;2023-05-07T06:52:42;494.88;;;464.70;;
25231;SDS011;13176;51.140;6.290;2023-05-07T06:55:09;478.10;;;449.20;;
25231;SDS011;13176;51.140;6.290;2023-05-07T06:57:35;519.22;;;486.70;;
25231;SDS011;13176;51.140;6.290;2023-05-07T07:00:02;451.35;;;424.15;;
25231;SDS011;13176;51.140;6.290;2023-05-07T07:02:30;468.63;;;440.17;;
25231;SDS011;13176;51.140;6.290;2023-05-07T07:04:56;466.90;;;438.85;;
25231;SDS011;13176;51.140;6.290;2023-05-07T07:07:23;492.33;;;461.73;;
25231;SDS011;13176;51.140;6.290;2023-05-07T07:09:49;480.33;;;451.13;;
25231;SDS011;13176;51.140;6.290;2023-05-07T07:12:16;518.60;;;486.23;;
25231;SDS011;13176;51.140;6.290;2023-05-07T07:14:43;546.53;;;512.15;;
25231;SDS011;13176;51.140;6.290;2023-05-07T07:17:09;487.77;;;458.08;;
25231;SDS011;13176;51.140;6.290;2023-05-07T07:19:36;411.63;;;387.08;;
25231;SDS011;13176;51.140;6.290;2023-05-07T07:22:03;377.73;;;356.17;;
25231;SDS011;13176;51.140;6.290;2023-05-07T07:24:30;386.67;;;364.95;;
25231;SDS011;13176;51.140;6.290;2023-05-07T07:26:56;412.45;;;388.50;;
25231;SDS011;13176;51.140;6.290;2023-05-07T07:29:22;385.35;;;363.77;;
25231;SDS011;13176;51.140;6.290;2023-05-07T07:31:49;399.98;;;377.00;;
25231;SDS011;13176;51.140;6.290;2023-05-07T07:34:16;509.58;;;477.55;;
25231;SDS011;13176;51.140;6.290;2023-05-07T07:36:42;475.65;;;447.15;;
25231;SDS011;13176;51.140;6.290;2023-05-07T07:39:12;421.02;;;396.75;;
25231;SDS011;13176;51.140;6.290;2023-05-07T07:41:38;459.48;;;431.08;;
25231;SDS011;13176;51.140;6.290;2023-05-07T07:44:05;432.75;;;407.27;;
25231;SDS011;13176;51.140;6.290;2023-05-07T07:46:33;437.25;;;411.30;;
25231;SDS011;13176;51.140;6.290;2023-05-07T07:49:00;348.63;;;329.15;;
25231;SDS011;13176;51.140;6.290;2023-05-07T07:51:27;330.80;;;312.17;;
25231;SDS011;13176;51.140;6.290;2023-05-07T07:53:53;378.60;;;357.02;;
25231;SDS011;13176;51.140;6.290;2023-05-07T07:56:19;309.65;;;292.30;;
25231;SDS011;13176;51.140;6.290;2023-05-07T07:58:46;266.90;;;252.52;;
25231;SDS011;13176;51.140;6.290;2023-05-07T08:01:13;269.65;;;254.95;;
25231;SDS011;13176;51.140;6.290;2023-05-07T08:03:39;364.45;;;344.08;;
25231;SDS011;13176;51.140;6.290;2023-05-07T08:06:06;283.63;;;267.95;;
25231;SDS011;13176;51.140;6.290;2023-05-07T08:08:36;284.42;;;268.85;;
25231;SDS011;13176;51.140;6.290;2023-05-07T08:11:03;325.13;;;307.42;;
25231;SDS011;13176;51.140;6.290;2023-05-07T08:13:29;321.60;;;303.60;;
25231;SDS011;13176;51.140;6.290;2023-05-07T08:15:56;200.88;;;189.98;;
25231;SDS011;13176;51.140;6.290;2023-05-07T08:18:26;170.93;;;161.32;;
25231;SDS011;13176;51.140;6.290;2023-05-07T08:20:54;237.48;;;224.32;;
25231;SDS011;13176;51.140;6.290;2023-05-07T08:23:23;222.75;;;210.57;;
25231;SDS011;13176;51.140;6.290;2023-05-07T08:25:53;208.45;;;196.93;;
25231;SDS011;13176;51.140;6.290;2023-05-07T08:28:19;279.27;;;263.98;;
25231;SDS011;13176;51.140;6.290;2023-05-07T08:31:08;147.55;;;139.52;;
25231;SDS011;13176;51.140;6.290;2023-05-07T08:33:36;89.13;;;84.28;;
25231;SDS011;13176;51.140;6.290;2023-05-07T08:36:07;96.30;;;90.97;;
25231;SDS011;13176;51.140;6.290;2023-05-07T08:38:52;176.20;;;166.73;;
25231;SDS011;13176;51.140;6.290;2023-05-07T08:41:21;84.32;;;79.65;;
25231;SDS011;13176;51.140;6.290;2023-05-07T08:43:48;142.23;;;134.25;;
25231;SDS011;13176;51.140;6.290;2023-05-07T08:46:19;33.63;;;31.52;;
25231;SDS011;13176;51.140;6.290;2023-05-07T08:48:50;98.35;;;93.15;;
25231;SDS011;13176;51.140;6.290;2023-05-07T08:51:21;55.45;;;52.00;;
25231;SDS011;13176;51.140;6.290;2023-05-07T08:53:50;27.95;;;26.25;;
25231;SDS011;13176;51.140;6.290;2023-05-07T08:56:17;88.28;;;83.30;;
25231;SDS011;13176;51.140;6.290;2023-05-07T08:58:47;45.38;;;42.80;;
25231;SDS011;13176;51.140;6.290;2023-05-07T09:01:14;19.00;;;17.77;;
25231;SDS011;13176;51.140;6.290;2023-05-07T09:03:44;64.25;;;60.63;;
25231;SDS011;13176;51.140;6.290;2023-05-07T09:06:13;152.93;;;144.50;;
25231;SDS011;13176;51.140;6.290;2023-05-07T09:08:40;158.15;;;149.77;;
25231;SDS011;13176;51.140;6.290;2023-05-07T09:11:06;148.95;;;141.05;;
25231;SDS011;13176;51.140;6.290;2023-05-07T09:13:33;22.60;;;20.95;;
25231;SDS011;13176;51.140;6.290;2023-05-07T09:16:09;91.15;;;85.93;;
25231;SDS011;13176;51.140;6.290;2023-05-07T09:18:43;26.45;;;24.85;;
25231;SDS011;13176;51.140;6.290;2023-05-07T09:21:11;41.20;;;38.97;;
25231;SDS011;13176;51.140;6.290;2023-05-07T09:23:41;25.55;;;24.02;;
25231;SDS011;13176;51.140;6.290;2023-05-07T09:26:08;240.65;;;227.50;;
25231;SDS011;13176;51.140;6.290;2023-05-07T09:28:41;154.50;;;146.07;;
25231;SDS011;13176;51.140;6.290;2023-05-07T09:31:08;59.60;;;56.05;;
25231;SDS011;13176;51.140;6.290;2023-05-07T09:33:35;53.72;;;50.65;;
25231;SDS011;13176;51.140;6.290;2023-05-07T09:36:03;56.65;;;53.45;;
25231;SDS011;13176;51.140;6.290;2023-05-07T09:38:34;144.55;;;136.77;;
25231;SDS011;13176;51.140;6.290;2023-05-07T09:41:05;59.60;;;56.25;;
25231;SDS011;13176;51.140;6.290;2023-05-07T09:43:38;28.77;;;27.23;;
25231;SDS011;13176;51.140;6.290;2023-05-07T09:46:10;27.60;;;25.85;;
25231;SDS011;13176;51.140;6.290;2023-05-07T09:48:39;27.13;;;25.55;;
25231;SDS011;13176;51.140;6.290;2023-05-07T09:51:09;64.20;;;60.63;;
25231;SDS011;13176;51.140;6.290;2023-05-07T09:53:44;114.85;;;108.70;;
25231;SDS011;13176;51.140;6.290;2023-05-07T09:56:12;51.20;;;48.22;;
25231;SDS011;13176;51.140;6.290;2023-05-07T09:58:40;26.98;;;25.58;;
25231;SDS011;13176;51.140;6.290;2023-05-07T10:01:08;28.25;;;26.48;;
25231;SDS011;13176;51.140;6.290;2023-05-07T10:03:36;23.15;;;21.80;;
25231;SDS011;13176;51.140;6.290;2023-05-07T10:06:06;95.43;;;90.38;;
25231;SDS011;13176;51.140;6.290;2023-05-07T10:08:35;24.08;;;22.75;;
25231;SDS011;13176;51.140;6.290;2023-05-07T10:11:03;30.17;;;28.48;;
25231;SDS011;13176;51.140;6.290;2023-05-07T10:13:32;34.10;;;32.20;;
25231;SDS011;13176;51.140;6.290;2023-05-07T10:16:05;47.17;;;44.47;;
25231;SDS011;13176;51.140;6.290;2023-05-07T10:18:31;22.95;;;21.70;;
25231;SDS011;13176;51.140;6.290;2023-05-07T10:21:02;47.42;;;44.78;;
25231;SDS011;13176;51.140;6.290;2023-05-07T10:24:05;19.02;;;17.73;;
25231;SDS011;13176;51.140;6.290;2023-05-07T10:26:44;15.75;;;14.88;;
25231;SDS011;13176;51.140;6.290;2023-05-07T10:29:33;39.50;;;37.10;;
25231;SDS011;13176;51.140;6.290;2023-05-07T10:32:37;22.05;;;20.73;;
25231;SDS011;13176;51.140;6.290;2023-05-07T10:35:09;44.15;;;41.80;;
25231;SDS011;13176;51.140;6.290;2023-05-07T10:37:40;27.08;;;25.38;;
25231;SDS011;13176;51.140;6.290;2023-05-07T10:40:08;82.70;;;78.10;;
25231;SDS011;13176;51.140;6.290;2023-05-07T10:42:35;104.10;;;98.38;;
25231;SDS011;13176;51.140;6.290;2023-05-07T10:45:11;76.68;;;72.45;;
25231;SDS011;13176;51.140;6.290;2023-05-07T10:53:45;27.63;;;25.90;;
25231;SDS011;13176;51.140;6.290;2023-05-07T10:58:47;23.60;;;22.30;;
25231;SDS011;13176;51.140;6.290;2023-05-07T11:01:13;38.97;;;36.72;;
25231;SDS011;13176;51.140;6.290;2023-05-07T11:06:39;23.23;;;21.95;;
25231;SDS011;13176;51.140;6.290;2023-05-07T11:09:07;14.88;;;13.93;;
25231;SDS011;13176;51.140;6.290;2023-05-07T11:11:54;16.67;;;15.82;;
25231;SDS011;13176;51.140;6.290;2023-05-07T11:14:42;11.32;;;10.57;;
25231;SDS011;13176;51.140;6.290;2023-05-07T11:17:11;12.95;;;12.10;;
25231;SDS011;13176;51.140;6.290;2023-05-07T11:19:50;12.23;;;11.38;;
25231;SDS011;13176;51.140;6.290;2023-05-07T11:22:35;14.93;;;13.82;;
25231;SDS011;13176;51.140;6.290;2023-05-07T11:25:03;12.65;;;11.85;;
25231;SDS011;13176;51.140;6.290;2023-05-07T11:27:29;15.25;;;14.32;;
25231;SDS011;13176;51.140;6.290;2023-05-07T11:29:56;12.57;;;11.88;;
25231;SDS011;13176;51.140;6.290;2023-05-07T11:32:23;12.75;;;11.93;;
25231;SDS011;13176;51.140;6.290;2023-05-07T11:34:53;15.98;;;15.13;;
25231;SDS011;13176;51.140;6.290;2023-05-07T11:37:21;12.43;;;11.73;;
25231;SDS011;13176;51.140;6.290;2023-05-07T11:39:49;15.90;;;14.95;;
25231;SDS011;13176;51.140;6.290;2023-05-07T11:44:57;14.00;;;13.30;;
25231;SDS011;13176;51.140;6.290;2023-05-07T11:47:23;13.20;;;12.27;;
25231;SDS011;13176;51.140;6.290;2023-05-07T11:49:52;13.35;;;12.30;;
25231;SDS011;13176;51.140;6.290;2023-05-07T11:52:20;12.80;;;12.02;;
25231;SDS011;13176;51.140;6.290;2023-05-07T11:54:51;14.13;;;13.43;;
25231;SDS011;13176;51.140;6.290;2023-05-07T11:57:19;12.68;;;12.05;;
25231;SDS011;13176;51.140;6.290;2023-05-07T11:59:45;16.27;;;15.45;;
25231;SDS011;13176;51.140;6.290;2023-05-07T12:02:17;14.10;;;13.13;;
25231;SDS011;13176;51.140;6.290;2023-05-07T12:04:44;13.80;;;13.00;;
25231;SDS011;13176;51.140;6.290;2023-05-07T12:07:11;16.55;;;15.40;;
25231;SDS011;13176;51.140;6.290;2023-05-07T12:09:40;10.48;;;9.70;;
25231;SDS011;13176;51.140;6.290;2023-05-07T12:12:07;10.68;;;10.07;;
25231;SDS011;13176;51.140;6.290;2023-05-07T12:14:44;10.50;;;9.95;;
25231;SDS011;13176;51.140;6.290;2023-05-07T12:17:12;13.32;;;12.60;;
25231;SDS011;13176;51.140;6.290;2023-05-07T12:19:42;19.60;;;18.55;;
25231;SDS011;13176;51.140;6.290;2023-05-07T12:22:10;18.23;;;17.10;;
25231;SDS011;13176;51.140;6.290;2023-05-07T12:24:56;14.07;;;13.23;;
25231;SDS011;13176;51.140;6.290;2023-05-07T12:27:23;12.60;;;11.95;;
25231;SDS011;13176;51.140;6.290;2023-05-07T12:29:51;17.13;;;16.17;;
25231;SDS011;13176;51.140;6.290;2023-05-07T12:32:18;12.60;;;11.93;;
25231;SDS011;13176;51.140;6.290;2023-05-07T12:34:49;13.32;;;12.68;;
25231;SDS011;13176;51.140;6.290;2023-05-07T12:37:16;12.13;;;11.45;;
25231;SDS011;13176;51.140;6.290;2023-05-07T12:39:48;14.88;;;14.10;;
25231;SDS011;13176;51.140;6.290;2023-05-07T12:42:32;16.73;;;15.90;;
25231;SDS011;13176;51.140;6.290;2023-05-07T12:45:07;10.48;;;9.93;;
25231;SDS011;13176;51.140;6.290;2023-05-07T12:47:46;6.90;;;6.53;;
25231;SDS011;13176;51.140;6.290;2023-05-07T12:50:13;7.30;;;6.72;;
25231;SDS011;13176;51.140;6.290;2023-05-07T12:52:42;6.78;;;6.38;;
25231;SDS011;13176;51.140;6.290;2023-05-07T12:55:12;6.80;;;6.50;;
25231;SDS011;13176;51.140;6.290;2023-05-07T12:57:45;9.20;;;8.45;;
25231;SDS011;13176;51.140;6.290;2023-05-07T13:00:14;6.40;;;6.00;;
25231;SDS011;13176;51.140;6.290;2023-05-07T13:02:42;6.78;;;6.38;;
25231;SDS011;13176;51.140;6.290;2023-05-07T13:05:12;7.18;;;6.78;;
25231;SDS011;13176;51.140;6.290;2023-05-07T13:07:39;12.80;;;11.90;;
25231;SDS011;13176;51.140;6.290;2023-05-07T13:10:06;13.68;;;12.90;;
25231;SDS011;13176;51.140;6.290;2023-05-07T13:12:33;19.23;;;18.23;;
25231;SDS011;13176;51.140;6.290;2023-05-07T13:15:01;14.20;;;13.25;;
25231;SDS011;13176;51.140;6.290;2023-05-07T13:17:27;16.20;;;15.30;;
25231;SDS011;13176;51.140;6.290;2023-05-07T13:19:53;18.02;;;17.02;;
25231;SDS011;13176;51.140;6.290;2023-05-07T13:22:20;17.05;;;16.15;;
25231;SDS011;13176;51.140;6.290;2023-05-07T13:24:46;20.23;;;18.92;;
25231;SDS011;13176;51.140;6.290;2023-05-07T13:27:13;22.60;;;21.40;;
25231;SDS011;13176;51.140;6.290;2023-05-07T13:29:39;20.17;;;19.08;;
25231;SDS011;13176;51.140;6.290;2023-05-07T13:32:05;19.45;;;18.35;;
25231;SDS011;13176;51.140;6.290;2023-05-07T13:34:32;17.80;;;16.70;;
25231;SDS011;13176;51.140;6.290;2023-05-07T13:36:58;17.30;;;16.40;;
25231;SDS011;13176;51.140;6.290;2023-05-07T13:39:25;18.60;;;17.38;;
25231;SDS011;13176;51.140;6.290;2023-05-07T13:41:51;18.30;;;16.95;;
25231;SDS011;13176;51.140;6.290;2023-05-07T13:44:18;86.15;;;81.47;;
25231;SDS011;13176;51.140;6.290;2023-05-07T13:46:45;443.73;;;415.30;;
25231;SDS011;13176;51.140;6.290;2023-05-07T13:49:11;601.08;;;561.95;;
25231;SDS011;13176;51.140;6.290;2023-05-07T13:51:38;533.80;;;498.33;;
25231;SDS011;13176;51.140;6.290;2023-05-07T13:54:06;571.33;;;532.97;;
25231;SDS011;13176;51.140;6.290;2023-05-07T13:56:32;645.60;;;600.65;;
25231;SDS011;13176;51.140;6.290;2023-05-07T13:58:59;629.22;;;586.88;;
25231;SDS011;13176;51.140;6.290;2023-05-07T14:01:26;750.33;;;695.70;;
25231;SDS011;13176;51.140;6.290;2023-05-07T14:03:53;873.90;;;802.60;;
25231;SDS011;13176;51.140;6.290;2023-05-07T14:06:20;828.05;;;761.92;;
25231;SDS011;13176;51.140;6.290;2023-05-07T14:08:46;895.47;;;822.80;;
25231;SDS011;13176;51.140;6.290;2023-05-07T14:11:12;943.50;;;864.55;;
25231;SDS011;13176;51.140;6.290;2023-05-07T14:13:39;932.53;;;853.60;;
25231;SDS011;13176;51.140;6.290;2023-05-07T14:16:06;996.33;;;908.05;;
25231;SDS011;13176;51.140;6.290;2023-05-07T14:18:32;1027.07;;;934.85;;
25231;SDS011;13176;51.140;6.290;2023-05-07T14:21:00;1044.20;;;944.53;;
25231;SDS011;13176;51.140;6.290;2023-05-07T14:23:26;1072.10;;;968.38;;
25231;SDS011;13176;51.140;6.290;2023-05-07T14:25:53;1138.28;;;999.90;;